CWUW 040600Z AUTO 31013KT ////SM SCT160 OVC190 M33/M37 A2946
From batch tds/metars/production/2023/2/4/h06_m24_metars.cache.csv.gz
Observed at (about 2 hours ago)
Identifier CWUW
CWUW 040548Z AUTO 32013KT ////SM BKN190 M33/M36 A2946
From batch tds/metars/production/2023/2/4/h05_m59_metars.cache.csv.gz
Observed at (about 3 hours ago)
Identifier CWUW
CWUW 040400Z AUTO 32013KT ////SM OVC055 M33/M36 A2946
From batch tds/metars/production/2023/2/4/h04_m25_metars.cache.csv.gz
Observed at (about 4 hours ago)
Identifier CWUW
CWUW 040300Z AUTO 32012KT ////SM FEW031 OVC055 M33/M36 A2946
From batch tds/metars/production/2023/2/4/h03_m27_metars.cache.csv.gz
Observed at (about 5 hours ago)
Identifier CWUW
CWUW 040200Z AUTO 33013KT ////SM FEW046 OVC060 M33/M37 A2947
From batch tds/metars/production/2023/2/4/h02_m20_metars.cache.csv.gz
Observed at (about 6 hours ago)
Identifier CWUW
CWUW 040100Z AUTO 34013KT ////SM NCD M34/M37 A2946
From batch tds/metars/production/2023/2/4/h01_m29_metars.cache.csv.gz
Observed at (about 7 hours ago)
Identifier CWUW
CWUW 032200Z AUTO 33012KT ////SM SCT004 OVC055 M34/M37 A2947
From batch tds/metars/production/2023/2/3/h22_m28_metars.cache.csv.gz
Observed at (about 10 hours ago)
Identifier CWUW
CWUW 032122Z AUTO 33013KT ////SM BKN003 OVC055 M33/M36 A2947
From batch tds/metars/production/2023/2/3/h21_m26_metars.cache.csv.gz
Observed at (about 11 hours ago)
Identifier CWUW
CWUW 032000Z AUTO 32013KT ////SM OVC065 M33/M36 A2947
From batch tds/metars/production/2023/2/3/h20_m20_metars.cache.csv.gz
Observed at (about 12 hours ago)
Identifier CWUW
CWUW 031900Z AUTO 31011KT ////SM BKN048 BKN060 M34/M37 A2947
From batch tds/metars/production/2023/2/3/h19_m22_metars.cache.csv.gz
Observed at (about 13 hours ago)
Identifier CWUW
CWUW 031800Z AUTO 31012KT ////SM FEW002 M33/M36 A2947
From batch tds/metars/production/2023/2/3/h18_m26_metars.cache.csv.gz
Observed at (about 14 hours ago)
Identifier CWUW
CWUW 031700Z AUTO 31012KT ////SM SCT002 M33/M36 A2948
From batch tds/metars/production/2023/2/3/h17_m20_metars.cache.csv.gz
Observed at (about 15 hours ago)
Identifier CWUW
CWUW 031600Z AUTO 31011KT ////SM OVC002 M33/M36 A2948
From batch tds/metars/production/2023/2/3/h16_m26_metars.cache.csv.gz
Observed at (about 16 hours ago)
Identifier CWUW
CWUW 031537Z AUTO 31011KT ////SM OVC003 M33/M36 A2948
From batch tds/metars/production/2023/2/3/h15_m51_metars.cache.csv.gz
Observed at (about 17 hours ago)
Identifier CWUW
CWUW 031500Z AUTO 30010KT ////SM OVC002 M33/M36 A2949
From batch tds/metars/production/2023/2/3/h15_m26_metars.cache.csv.gz
Observed at (about 17 hours ago)
Identifier CWUW
CWUW 031400Z AUTO 30011KT ////SM OVC002 M32/M35 A2949
From batch tds/metars/production/2023/2/3/h14_m23_metars.cache.csv.gz
Observed at (about 18 hours ago)
Identifier CWUW
CWUW 031307Z AUTO 30008KT ////SM BKN002 OVC080 M33/M36 A2950
From batch tds/metars/production/2023/2/3/h13_m26_metars.cache.csv.gz
Observed at (about 19 hours ago)
Identifier CWUW
CWUW 031200Z AUTO 29007KT ////SM OVC036 M32/M35 A2951
From batch tds/metars/production/2023/2/3/h12_m19_metars.cache.csv.gz
Observed at (about 20 hours ago)
Identifier CWUW
CWUW 031100Z AUTO 28007KT ////SM OVC034 M32/M35 A2952
From batch tds/metars/production/2023/2/3/h11_m20_metars.cache.csv.gz
Observed at (about 21 hours ago)
Identifier CWUW
CWUW 031013Z AUTO 28007KT ////SM FEW004 OVC037 M32/M35 A2952
From batch tds/metars/production/2023/2/3/h10_m22_metars.cache.csv.gz
Observed at (about 22 hours ago)
Identifier CWUW
CWUW 030934Z AUTO 25006KT ////SM BKN004 OVC042 M33/M36 A2953
From batch tds/metars/production/2023/2/3/h09_m59_metars.cache.csv.gz
Observed at (about 23 hours ago)
Identifier CWUW
talk